sensor_id;sensor_type;location;lat;lon;timestamp;pressure;altitude;pressure_sealevel;temperature;humidity
19150;BME280;9707;49.158;8.632;2023-03-02T00:01:33;100669.69;;;16.61;28.65
19150;BME280;9707;49.158;8.632;2023-03-02T00:04:01;100673.91;;;16.65;28.82
19150;BME280;9707;49.158;8.632;2023-03-02T00:06:28;100672.00;;;16.67;28.21
19150;BME280;9707;49.158;8.632;2023-03-02T00:08:56;100662.22;;;16.66;27.86
19150;BME280;9707;49.158;8.632;2023-03-02T00:11:25;100671.31;;;16.63;27.91
19150;BME280;9707;49.158;8.632;2023-03-02T00:13:50;100673.22;;;16.61;28.06
19150;BME280;9707;49.158;8.632;2023-03-02T00:16:15;100670.63;;;16.60;27.59
19150;BME280;9707;49.158;8.632;2023-03-02T00:18:41;100677.91;;;16.58;27.79
19150;BME280;9707;49.158;8.632;2023-03-02T00:21:06;100678.00;;;16.56;27.88
19150;BME280;9707;49.158;8.632;2023-03-02T00:23:35;100670.00;;;16.55;27.86
19150;BME280;9707;49.158;8.632;2023-03-02T00:26:00;100677.91;;;16.58;28.61
19150;BME280;9707;49.158;8.632;2023-03-02T00:28:25;100670.63;;;16.60;29.01
19150;BME280;9707;49.158;8.632;2023-03-02T00:30:51;100668.50;;;16.65;28.98
19150;BME280;9707;49.158;8.632;2023-03-02T00:33:16;100669.31;;;16.67;28.77
19150;BME280;9707;49.158;8.632;2023-03-02T00:35:41;100670.00;;;16.70;28.18
19150;BME280;9707;49.158;8.632;2023-03-02T00:38:07;100667.47;;;16.67;28.02
19150;BME280;9707;49.158;8.632;2023-03-02T00:40:34;100667.47;;;16.67;28.63
19150;BME280;9707;49.158;8.632;2023-03-02T00:42:59;100661.25;;;16.67;28.53
19150;BME280;9707;49.158;8.632;2023-03-02T00:45:25;100664.91;;;16.66;27.90
19150;BME280;9707;49.158;8.632;2023-03-02T00:47:50;100659.69;;;16.63;28.27
19150;BME280;9707;49.158;8.632;2023-03-02T00:50:15;100658.81;;;16.62;28.30
19150;BME280;9707;49.158;8.632;2023-03-02T00:52:41;100661.41;;;16.64;29.53
19150;BME280;9707;49.158;8.632;2023-03-02T00:55:06;100658.56;;;16.67;28.83
19150;BME280;9707;49.158;8.632;2023-03-02T00:57:33;100653.94;;;16.69;28.54
19150;BME280;9707;49.158;8.632;2023-03-02T00:59:58;100648.47;;;16.70;29.38
19150;BME280;9707;49.158;8.632;2023-03-02T01:02:24;100649.16;;;16.74;29.03
19150;BME280;9707;49.158;8.632;2023-03-02T01:04:49;100645.63;;;16.73;28.61
19150;BME280;9707;49.158;8.632;2023-03-02T01:07:18;100647.34;;;16.74;29.04
19150;BME280;9707;49.158;8.632;2023-03-02T01:09:45;100646.28;;;16.77;28.85
19150;BME280;9707;49.158;8.632;2023-03-02T01:12:12;100640.03;;;16.76;28.57
19150;BME280;9707;49.158;8.632;2023-03-02T01:14:41;100641.00;;;16.75;28.68
19150;BME280;9707;49.158;8.632;2023-03-02T01:17:07;100637.44;;;16.75;29.05
19150;BME280;9707;49.158;8.632;2023-03-02T01:19:33;100633.81;;;16.76;29.47
19150;BME280;9707;49.158;8.632;2023-03-02T01:21:58;100625.63;;;16.77;28.75
19150;BME280;9707;49.158;8.632;2023-03-02T01:24:26;100627.47;;;16.77;28.39
19150;BME280;9707;49.158;8.632;2023-03-02T01:26:51;100625.81;;;16.74;28.18
19150;BME280;9707;49.158;8.632;2023-03-02T01:29:17;100615.22;;;16.71;28.79
19150;BME280;9707;49.158;8.632;2023-03-02T01:31:42;100616.19;;;16.70;28.74
19150;BME280;9707;49.158;8.632;2023-03-02T01:34:07;100618.97;;;16.69;28.23
19150;BME280;9707;49.158;8.632;2023-03-02T01:36:33;100616.28;;;16.69;28.50
19150;BME280;9707;49.158;8.632;2023-03-02T01:38:59;100618.88;;;16.70;28.60
19150;BME280;9707;49.158;8.632;2023-03-02T01:41:24;100610.91;;;16.69;28.60
19150;BME280;9707;49.158;8.632;2023-03-02T01:43:49;100611.88;;;16.68;28.45
19150;BME280;9707;49.158;8.632;2023-03-02T01:46:21;100603.88;;;16.66;28.24
19150;BME280;9707;49.158;8.632;2023-03-02T01:48:51;100596.84;;;16.64;28.15
19150;BME280;9707;49.158;8.632;2023-03-02T01:51:22;100608.66;;;16.61;28.85
19150;BME280;9707;49.158;8.632;2023-03-02T01:53:51;100609.53;;;16.62;28.44
19150;BME280;9707;49.158;8.632;2023-03-02T01:56:22;100601.47;;;16.62;28.74
19150;BME280;9707;49.158;8.632;2023-03-02T01:58:52;100602.31;;;16.62;28.42
19150;BME280;9707;49.158;8.632;2023-03-02T02:01:18;100603.13;;;16.64;28.84
19150;BME280;9707;49.158;8.632;2023-03-02T02:03:48;100598.59;;;16.65;28.93
19150;BME280;9707;49.158;8.632;2023-03-02T02:06:20;100597.66;;;16.66;28.22
19150;BME280;9707;49.158;8.632;2023-03-02T02:08:47;100586.97;;;16.64;28.28
19150;BME280;9707;49.158;8.632;2023-03-02T02:11:13;100591.47;;;16.64;28.93
19150;BME280;9707;49.158;8.632;2023-03-02T02:13:38;100588.88;;;16.62;28.47
19150;BME280;9707;49.158;8.632;2023-03-02T02:16:04;100590.72;;;16.62;27.92
19150;BME280;9707;49.158;8.632;2023-03-02T02:18:31;100588.19;;;16.59;28.05
19150;BME280;9707;49.158;8.632;2023-03-02T02:20:57;100592.81;;;16.57;28.07
19150;BME280;9707;49.158;8.632;2023-03-02T02:26:17;100583.19;;;16.53;28.50
19150;BME280;9707;49.158;8.632;2023-03-02T02:31:18;100580.81;;;16.48;28.23
19150;BME280;9707;49.158;8.632;2023-03-02T02:33:48;100588.06;;;16.46;28.28
19150;BME280;9707;49.158;8.632;2023-03-02T02:36:19;100581.94;;;16.44;28.36
19150;BME280;9707;49.158;8.632;2023-03-02T02:38:49;100568.56;;;16.43;28.20
19150;BME280;9707;49.158;8.632;2023-03-02T02:41:19;100574.03;;;16.41;28.31
19150;BME280;9707;49.158;8.632;2023-03-02T02:43:46;100567.81;;;16.41;28.37
19150;BME280;9707;49.158;8.632;2023-03-02T02:46:12;100569.66;;;16.39;28.61
19150;BME280;9707;49.158;8.632;2023-03-02T02:48:38;100567.19;;;16.36;28.34
19150;BME280;9707;49.158;8.632;2023-03-02T02:51:06;100572.56;;;16.36;28.41
19150;BME280;9707;49.158;8.632;2023-03-02T02:56:14;100577.22;;;16.32;28.81
19150;BME280;9707;49.158;8.632;2023-03-02T02:58:52;100572.81;;;16.31;28.43
19150;BME280;9707;49.158;8.632;2023-03-02T03:01:20;100577.34;;;16.31;28.54
19150;BME280;9707;49.158;8.632;2023-03-02T03:03:56;100576.56;;;16.29;28.45
19150;BME280;9707;49.158;8.632;2023-03-02T03:06:25;100575.78;;;16.27;28.33
19150;BME280;9707;49.158;8.632;2023-03-02T03:08:52;100568.69;;;16.26;28.35
19150;BME280;9707;49.158;8.632;2023-03-02T03:11:21;100565.03;;;16.27;28.68
19150;BME280;9707;49.158;8.632;2023-03-02T03:14:09;100569.63;;;16.25;28.46
19150;BME280;9707;49.158;8.632;2023-03-02T03:16:36;100567.88;;;16.24;28.72
19150;BME280;9707;49.158;8.632;2023-03-02T03:19:07;100573.25;;;16.24;28.31
19150;BME280;9707;49.158;8.632;2023-03-02T03:21:34;100571.63;;;16.21;28.40
19150;BME280;9707;49.158;8.632;2023-03-02T03:24:00;100570.78;;;16.21;28.37
19150;BME280;9707;49.158;8.632;2023-03-02T03:26:25;100577.19;;;16.18;28.55
19150;BME280;9707;49.158;8.632;2023-03-02T03:28:51;100565.56;;;16.18;28.70
19150;BME280;9707;49.158;8.632;2023-03-02T03:31:16;100570.94;;;16.18;28.27
19150;BME280;9707;49.158;8.632;2023-03-02T03:33:42;100570.19;;;16.16;28.30
19150;BME280;9707;49.158;8.632;2023-03-02T03:36:07;100565.72;;;16.15;28.71
19150;BME280;9707;49.158;8.632;2023-03-02T03:38:33;100575.63;;;16.14;28.29
19150;BME280;9707;49.158;8.632;2023-03-02T03:40:58;100572.88;;;16.16;28.78
19150;BME280;9707;49.158;8.632;2023-03-02T03:43:24;100575.44;;;16.17;28.62
19150;BME280;9707;49.158;8.632;2023-03-02T03:45:49;100570.34;;;16.13;28.47
19150;BME280;9707;49.158;8.632;2023-03-02T03:48:16;100574.75;;;16.14;28.10
19150;BME280;9707;49.158;8.632;2023-03-02T03:50:41;100578.41;;;16.13;28.63
19150;BME280;9707;49.158;8.632;2023-03-02T03:53:06;100582.13;;;16.10;28.34
19150;BME280;9707;49.158;8.632;2023-03-02T03:55:32;100563.34;;;16.10;28.63
19150;BME280;9707;49.158;8.632;2023-03-02T03:57:57;100574.97;;;16.11;28.55
19150;BME280;9707;49.158;8.632;2023-03-02T04:00:23;100576.00;;;16.08;28.58
19150;BME280;9707;49.158;8.632;2023-03-02T04:02:48;100576.09;;;16.07;28.37
19150;BME280;9707;49.158;8.632;2023-03-02T04:05:15;100574.34;;;16.06;28.56
19150;BME280;9707;49.158;8.632;2023-03-02T04:07:40;100577.91;;;16.06;28.67
19150;BME280;9707;49.158;8.632;2023-03-02T04:10:07;100581.53;;;16.05;28.82
19150;BME280;9707;49.158;8.632;2023-03-02T04:12:35;100582.59;;;16.03;28.81
19150;BME280;9707;49.158;8.632;2023-03-02T04:15:01;100581.75;;;16.02;28.31
19150;BME280;9707;49.158;8.632;2023-03-02T04:17:27;100580.84;;;16.02;28.57
19150;BME280;9707;49.158;8.632;2023-03-02T04:19:53;100582.78;;;16.00;28.62
19150;BME280;9707;49.158;8.632;2023-03-02T04:22:19;100593.53;;;16.00;28.84
19150;BME280;9707;49.158;8.632;2023-03-02T04:24:48;100589.09;;;15.99;28.60
19150;BME280;9707;49.158;8.632;2023-03-02T04:27:14;100591.78;;;15.99;28.39
19150;BME280;9707;49.158;8.632;2023-03-02T04:29:40;100585.56;;;15.98;28.95
19150;BME280;9707;49.158;8.632;2023-03-02T04:32:06;100590.94;;;15.98;28.54
19150;BME280;9707;49.158;8.632;2023-03-02T04:34:34;100586.50;;;15.97;28.56
19150;BME280;9707;49.158;8.632;2023-03-02T04:36:59;100594.66;;;15.96;28.58
19150;BME280;9707;49.158;8.632;2023-03-02T04:39:25;100584.00;;;15.94;28.66
19150;BME280;9707;49.158;8.632;2023-03-02T04:41:53;100590.25;;;15.95;28.69
19150;BME280;9707;49.158;8.632;2023-03-02T04:44:19;100584.88;;;15.95;28.44
19150;BME280;9707;49.158;8.632;2023-03-02T04:46:46;100579.56;;;15.93;28.48
19150;BME280;9707;49.158;8.632;2023-03-02T04:49:13;100585.03;;;15.92;28.34
19150;BME280;9707;49.158;8.632;2023-03-02T04:51:41;100586.00;;;15.91;28.66
19150;BME280;9707;49.158;8.632;2023-03-02T04:54:17;100590.56;;;15.89;28.35
19150;BME280;9707;49.158;8.632;2023-03-02T04:56:43;100583.47;;;15.88;28.51
19150;BME280;9707;49.158;8.632;2023-03-02T04:59:08;100580.84;;;15.86;28.54
19150;BME280;9707;49.158;8.632;2023-03-02T05:01:34;100577.31;;;15.86;28.58
19150;BME280;9707;49.158;8.632;2023-03-02T05:03:59;100577.41;;;15.84;28.55
19150;BME280;9707;49.158;8.632;2023-03-02T05:06:24;100581.06;;;15.83;28.51
19150;BME280;9707;49.158;8.632;2023-03-02T05:08:51;100577.50;;;15.83;28.36
19150;BME280;9707;49.158;8.632;2023-03-02T05:11:18;100579.34;;;15.82;28.73
19150;BME280;9707;49.158;8.632;2023-03-02T05:13:57;100573.06;;;15.82;28.46
19150;BME280;9707;49.158;8.632;2023-03-02T05:16:29;100576.66;;;15.82;28.54
19150;BME280;9707;49.158;8.632;2023-03-02T05:18:57;100568.66;;;15.81;28.47
19150;BME280;9707;49.158;8.632;2023-03-02T05:21:23;100571.34;;;15.81;28.45
19150;BME280;9707;49.158;8.632;2023-03-02T05:23:48;100575.84;;;15.80;28.14
19150;BME280;9707;49.158;8.632;2023-03-02T05:26:14;100581.22;;;15.80;28.22
19150;BME280;9707;49.158;8.632;2023-03-02T05:28:42;100579.56;;;15.78;28.48
19150;BME280;9707;49.158;8.632;2023-03-02T05:31:08;100576.03;;;15.77;28.14
19150;BME280;9707;49.158;8.632;2023-03-02T05:33:33;100577.78;;;15.78;28.47
19150;BME280;9707;49.158;8.632;2023-03-02T05:35:59;100582.25;;;15.78;28.39
19150;BME280;9707;49.158;8.632;2023-03-02T05:38:25;100575.94;;;15.79;28.25
19150;BME280;9707;49.158;8.632;2023-03-02T05:40:52;100581.41;;;15.77;28.32
19150;BME280;9707;49.158;8.632;2023-03-02T05:43:19;100582.34;;;15.76;28.36
19150;BME280;9707;49.158;8.632;2023-03-02T05:45:45;100585.03;;;15.76;28.12
19150;BME280;9707;49.158;8.632;2023-03-02T05:48:14;100584.25;;;15.74;28.04
19150;BME280;9707;49.158;8.632;2023-03-02T05:50:39;100587.03;;;15.73;28.09
19150;BME280;9707;49.158;8.632;2023-03-02T05:53:05;100595.16;;;15.71;28.02
19150;BME280;9707;49.158;8.632;2023-03-02T05:55:30;100590.75;;;15.70;28.24
19150;BME280;9707;49.158;8.632;2023-03-02T05:58:01;100594.31;;;15.71;28.36
19150;BME280;9707;49.158;8.632;2023-03-02T06:00:26;100591.63;;;15.71;27.72
19150;BME280;9707;49.158;8.632;2023-03-02T06:02:51;100590.81;;;15.69;28.31
19150;BME280;9707;49.158;8.632;2023-03-02T06:05:18;100596.31;;;15.67;28.01
19150;BME280;9707;49.158;8.632;2023-03-02T06:07:44;100587.38;;;15.67;28.11
19150;BME280;9707;49.158;8.632;2023-03-02T06:10:11;100593.72;;;15.66;28.05
19150;BME280;9707;49.158;8.632;2023-03-02T06:12:37;100602.59;;;15.66;28.12
19150;BME280;9707;49.158;8.632;2023-03-02T06:15:04;100596.47;;;15.64;28.08
19150;BME280;9707;49.158;8.632;2023-03-02T06:17:30;100599.22;;;15.63;28.13
19150;BME280;9707;49.158;8.632;2023-03-02T06:19:55;100609.13;;;15.62;28.03
19150;BME280;9707;49.158;8.632;2023-03-02T06:22:20;100608.25;;;15.62;28.10
19150;BME280;9707;49.158;8.632;2023-03-02T06:24:46;100619.00;;;15.62;28.29
19150;BME280;9707;49.158;8.632;2023-03-02T06:27:12;100616.31;;;15.62;27.98
19150;BME280;9707;49.158;8.632;2023-03-02T06:29:37;100619.00;;;15.62;27.97
19150;BME280;9707;49.158;8.632;2023-03-02T06:32:02;100619.00;;;15.62;28.40
19150;BME280;9707;49.158;8.632;2023-03-02T06:34:28;100626.09;;;15.63;28.31
19150;BME280;9707;49.158;8.632;2023-03-02T06:36:53;100621.59;;;15.63;28.57
19150;BME280;9707;49.158;8.632;2023-03-02T06:39:19;100625.13;;;15.64;27.79
19150;BME280;9707;49.158;8.632;2023-03-02T06:41:45;100620.72;;;15.63;28.91
19150;BME280;9707;49.158;8.632;2023-03-02T06:44:12;100623.25;;;15.66;28.97
19150;BME280;9707;49.158;8.632;2023-03-02T06:46:38;100628.44;;;15.69;28.66
19150;BME280;9707;49.158;8.632;2023-03-02T06:49:03;100623.06;;;15.69;28.18
19150;BME280;9707;49.158;8.632;2023-03-02T06:51:29;100625.75;;;15.69;28.40
19150;BME280;9707;49.158;8.632;2023-03-02T06:53:55;100625.75;;;15.69;28.26
19150;BME280;9707;49.158;8.632;2023-03-02T06:56:20;100630.25;;;15.68;28.00
19150;BME280;9707;49.158;8.632;2023-03-02T06:58:45;100626.78;;;15.66;28.43
19150;BME280;9707;49.158;8.632;2023-03-02T07:01:11;100618.63;;;15.68;28.32
19150;BME280;9707;49.158;8.632;2023-03-02T07:03:36;100627.66;;;15.67;28.43
19150;BME280;9707;49.158;8.632;2023-03-02T07:06:02;100625.84;;;15.67;28.30
19150;BME280;9707;49.158;8.632;2023-03-02T07:08:27;100627.66;;;15.67;28.25
19150;BME280;9707;49.158;8.632;2023-03-02T07:10:52;100625.06;;;15.65;28.10
19150;BME280;9707;49.158;8.632;2023-03-02T07:13:18;100633.09;;;15.65;28.15
19150;BME280;9707;49.158;8.632;2023-03-02T07:15:44;100625.06;;;15.65;28.23
19150;BME280;9707;49.158;8.632;2023-03-02T07:18:09;100626.88;;;15.65;28.10
19150;BME280;9707;49.158;8.632;2023-03-02T07:20:34;100628.78;;;15.63;27.89
19150;BME280;9707;49.158;8.632;2023-03-02T07:23:00;100636.06;;;15.61;28.14
19150;BME280;9707;49.158;8.632;2023-03-02T07:25:25;100636.91;;;15.61;28.09
19150;BME280;9707;49.158;8.632;2023-03-02T07:27:51;100632.41;;;15.62;28.33
19150;BME280;9707;49.158;8.632;2023-03-02T07:30:16;100638.75;;;15.61;28.33
19150;BME280;9707;49.158;8.632;2023-03-02T07:32:45;100635.09;;;15.62;28.51
19150;BME280;9707;49.158;8.632;2023-03-02T07:35:10;100638.75;;;15.61;28.38
19150;BME280;9707;49.158;8.632;2023-03-02T07:37:36;100650.34;;;15.61;28.37
19150;BME280;9707;49.158;8.632;2023-03-02T07:40:02;100640.47;;;15.62;28.05
19150;BME280;9707;49.158;8.632;2023-03-02T07:42:27;100654.78;;;15.62;28.36
19150;BME280;9707;49.158;8.632;2023-03-02T07:44:53;100643.09;;;15.63;28.27
19150;BME280;9707;49.158;8.632;2023-03-02T07:47:18;100647.56;;;15.63;28.71
19150;BME280;9707;49.158;8.632;2023-03-02T07:49:43;100651.97;;;15.64;28.46
19150;BME280;9707;49.158;8.632;2023-03-02T07:52:11;100655.56;;;15.64;28.11
19150;BME280;9707;49.158;8.632;2023-03-02T07:54:36;100648.38;;;15.65;28.27
19150;BME280;9707;49.158;8.632;2023-03-02T07:57:01;100644.81;;;15.64;28.44
19150;BME280;9707;49.158;8.632;2023-03-02T07:59:27;100650.09;;;15.66;28.54
19150;BME280;9707;49.158;8.632;2023-03-02T08:01:53;100645.56;;;15.66;28.21
19150;BME280;9707;49.158;8.632;2023-03-02T08:04:18;100653.56;;;15.68;28.59
19150;BME280;9707;49.158;8.632;2023-03-02T08:06:43;100644.53;;;15.69;28.59
19150;BME280;9707;49.158;8.632;2023-03-02T08:09:09;100645.34;;;15.71;28.60
19150;BME280;9707;49.158;8.632;2023-03-02T08:11:34;100647.06;;;15.72;28.72
19150;BME280;9707;49.158;8.632;2023-03-02T08:14:00;100645.16;;;15.74;28.57
19150;BME280;9707;49.158;8.632;2023-03-02T08:16:26;100652.28;;;15.75;28.54
19150;BME280;9707;49.158;8.632;2023-03-02T08:18:51;100650.38;;;15.77;28.43
19150;BME280;9707;49.158;8.632;2023-03-02T08:21:19;100646.72;;;15.78;28.55
19150;BME280;9707;49.158;8.632;2023-03-02T08:23:45;100637.69;;;15.79;28.39
19150;BME280;9707;49.158;8.632;2023-03-02T08:26:11;100645.69;;;15.80;28.51
19150;BME280;9707;49.158;8.632;2023-03-02T08:28:36;100647.41;;;15.81;28.43
19150;BME280;9707;49.158;8.632;2023-03-02T08:31:05;100646.47;;;15.82;29.42
19150;BME280;9707;49.158;8.632;2023-03-02T08:33:31;100643.69;;;15.84;28.43
19150;BME280;9707;49.158;8.632;2023-03-02T08:36:05;100639.13;;;15.86;28.72
19150;BME280;9707;49.158;8.632;2023-03-02T08:38:32;100638.22;;;15.85;29.09
19150;BME280;9707;49.158;8.632;2023-03-02T08:40:58;100632.69;;;15.88;28.27
19150;BME280;9707;49.158;8.632;2023-03-02T08:43:24;100634.44;;;15.89;28.38
19150;BME280;9707;49.158;8.632;2023-03-02T08:45:51;100631.66;;;15.91;29.09
19150;BME280;9707;49.158;8.632;2023-03-02T08:48:18;100628.78;;;15.94;28.74
19150;BME280;9707;49.158;8.632;2023-03-02T08:50:43;100630.34;;;15.98;28.22
19150;BME280;9707;49.158;8.632;2023-03-02T08:53:08;100628.63;;;15.97;28.64
19150;BME280;9707;49.158;8.632;2023-03-02T08:55:35;100624.00;;;15.99;28.96
19150;BME280;9707;49.158;8.632;2023-03-02T08:58:02;100634.44;;;16.05;30.03
19150;BME280;9707;49.158;8.632;2023-03-02T09:00:27;100630.25;;;16.15;29.71
19150;BME280;9707;49.158;8.632;2023-03-02T09:02:53;100629.91;;;16.21;29.07
19150;BME280;9707;49.158;8.632;2023-03-02T09:05:18;100617.22;;;16.23;28.48
19150;BME280;9707;49.158;8.632;2023-03-02T09:07:43;100618.97;;;16.24;28.71
19150;BME280;9707;49.158;8.632;2023-03-02T09:10:09;100621.56;;;16.25;29.13
19150;BME280;9707;49.158;8.632;2023-03-02T09:12:34;100607.09;;;16.28;29.35
19150;BME280;9707;49.158;8.632;2023-03-02T09:15:00;100610.44;;;16.31;29.43
19150;BME280;9707;49.158;8.632;2023-03-02T09:17:27;100610.97;;;16.38;29.48
19150;BME280;9707;49.158;8.632;2023-03-02T09:19:52;100608.13;;;16.41;28.59
19150;BME280;9707;49.158;8.632;2023-03-02T09:22:18;100602.75;;;16.41;28.56
19150;BME280;9707;49.158;8.632;2023-03-02T09:24:45;100605.44;;;16.41;28.05
19150;BME280;9707;49.158;8.632;2023-03-02T09:27:10;100611.84;;;16.38;28.28
19150;BME280;9707;49.158;8.632;2023-03-02T09:29:36;100611.69;;;16.41;29.50
19150;BME280;9707;49.158;8.632;2023-03-02T09:32:03;100609.56;;;16.46;29.44
19150;BME280;9707;49.158;8.632;2023-03-02T09:34:28;100612.03;;;16.51;29.29
19150;BME280;9707;49.158;8.632;2023-03-02T09:36:54;100609.13;;;16.54;28.84
19150;BME280;9707;49.158;8.632;2023-03-02T09:39:20;100615.31;;;16.56;28.50
19150;BME280;9707;49.158;8.632;2023-03-02T09:44:38;100609.91;;;16.56;28.48
19150;BME280;9707;49.158;8.632;2023-03-02T09:47:29;100615.19;;;16.57;29.05
19150;BME280;9707;49.158;8.632;2023-03-02T09:50:10;100612.31;;;16.60;28.33
19150;BME280;9707;49.158;8.632;2023-03-02T09:55:36;100607.53;;;16.65;29.33
19150;BME280;9707;49.158;8.632;2023-03-02T09:58:07;100610.06;;;16.68;28.61
19150;BME280;9707;49.158;8.632;2023-03-02T10:00:39;100605.59;;;16.67;28.19
19150;BME280;9707;49.158;8.632;2023-03-02T10:03:13;100603.03;;;16.66;28.18
19150;BME280;9707;49.158;8.632;2023-03-02T10:05:51;100605.72;;;16.66;28.09
19150;BME280;9707;49.158;8.632;2023-03-02T10:08:23;100606.56;;;16.66;28.56
19150;BME280;9707;49.158;8.632;2023-03-02T10:11:00;100600.22;;;16.67;27.99
19150;BME280;9707;49.158;8.632;2023-03-02T10:13:42;100604.66;;;16.68;28.52
19150;BME280;9707;49.158;8.632;2023-03-02T10:16:48;100602.56;;;16.73;28.77
19150;BME280;9707;49.158;8.632;2023-03-02T10:21:58;100594.38;;;16.75;28.65
19150;BME280;9707;49.158;8.632;2023-03-02T10:24:34;100585.38;;;16.76;28.15
19150;BME280;9707;49.158;8.632;2023-03-02T10:29:54;100588.81;;;16.78;27.85
19150;BME280;9707;49.158;8.632;2023-03-02T10:32:26;100590.75;;;16.76;27.92
19150;BME280;9707;49.158;8.632;2023-03-02T10:34:53;100589.00;;;16.75;28.10
19150;BME280;9707;49.158;8.632;2023-03-02T10:37:25;100576.53;;;16.74;28.27
19150;BME280;9707;49.158;8.632;2023-03-02T10:39:53;100582.78;;;16.74;28.79
19150;BME280;9707;49.158;8.632;2023-03-02T10:42:28;100587.88;;;16.79;28.71
19150;BME280;9707;49.158;8.632;2023-03-02T10:45:20;100579.63;;;16.82;29.15
19150;BME280;9707;49.158;8.632;2023-03-02T10:48:02;100579.25;;;16.88;29.44
19150;BME280;9707;49.158;8.632;2023-03-02T10:50:27;100587.69;;;16.96;29.50
19150;BME280;9707;49.158;8.632;2023-03-02T10:52:54;100580.97;;;17.03;29.62
19150;BME280;9707;49.158;8.632;2023-03-02T10:55:20;100590.41;;;17.10;30.62
19150;BME280;9707;49.158;8.632;2023-03-02T11:00:25;100575.22;;;17.23;29.59
19150;BME280;9707;49.158;8.632;2023-03-02T11:02:53;100581.28;;;17.26;29.55
19150;BME280;9707;49.158;8.632;2023-03-02T11:07:56;100571.16;;;17.30;29.57
19150;BME280;9707;49.158;8.632;2023-03-02T11:13:18;100568.81;;;17.39;29.79
19150;BME280;9707;49.158;8.632;2023-03-02T11:15:49;100563.88;;;17.46;29.96
19150;BME280;9707;49.158;8.632;2023-03-02T11:18:21;100563.59;;;17.50;29.50
19150;BME280;9707;49.158;8.632;2023-03-02T11:20:51;100562.63;;;17.51;29.30
19150;BME280;9707;49.158;8.632;2023-03-02T11:23:38;100565.97;;;17.55;29.21
19150;BME280;9707;49.158;8.632;2023-03-02T11:26:25;100565.00;;;17.56;29.54
19150;BME280;9707;49.158;8.632;2023-03-02T11:28:59;100562.13;;;17.59;29.65
19150;BME280;9707;49.158;8.632;2023-03-02T11:31:49;100567.31;;;17.62;29.58
19150;BME280;9707;49.158;8.632;2023-03-02T11:34:50;100556.34;;;17.65;29.81
19150;BME280;9707;49.158;8.632;2023-03-02T11:40:46;100555.09;;;17.70;29.94
19150;BME280;9707;49.158;8.632;2023-03-02T11:43:13;100556.81;;;17.71;29.50
19150;BME280;9707;49.158;8.632;2023-03-02T11:45:49;100549.47;;;17.73;29.83
19150;BME280;9707;49.158;8.632;2023-03-02T11:48:46;100540.25;;;17.77;29.43
19150;BME280;9707;49.158;8.632;2023-03-02T11:51:17;100549.06;;;17.79;29.85
19150;BME280;9707;49.158;8.632;2023-03-02T11:53:59;100540.81;;;17.82;29.32
19150;BME280;9707;49.158;8.632;2023-03-02T11:56:29;100534.44;;;17.83;29.58
19150;BME280;9707;49.158;8.632;2023-03-02T11:59:00;100529.84;;;17.85;30.42
19150;BME280;9707;49.158;8.632;2023-03-02T12:01:27;100534.91;;;17.90;30.38
19150;BME280;9707;49.158;8.632;2023-03-02T12:04:05;100527.56;;;17.92;29.80
19150;BME280;9707;49.158;8.632;2023-03-02T12:06:37;100523.81;;;17.94;29.43
19150;BME280;9707;49.158;8.632;2023-03-02T12:09:11;100520.28;;;17.94;28.91
19150;BME280;9707;49.158;8.632;2023-03-02T12:12:15;100522.19;;;17.92;28.88
19150;BME280;9707;49.158;8.632;2023-03-02T12:14:41;100518.75;;;17.90;29.49
19150;BME280;9707;49.158;8.632;2023-03-02T12:20:05;100517.47;;;17.95;29.20
19150;BME280;9707;49.158;8.632;2023-03-02T12:22:31;100518.41;;;17.94;29.13
19150;BME280;9707;49.158;8.632;2023-03-02T12:25:05;100521.00;;;17.96;29.58
19150;BME280;9707;49.158;8.632;2023-03-02T12:27:37;100514.66;;;17.97;28.93
19150;BME280;9707;49.158;8.632;2023-03-02T12:30:29;100511.03;;;17.98;28.62
19150;BME280;9707;49.158;8.632;2023-03-02T12:33:02;100518.22;;;17.97;28.56
19150;BME280;9707;49.158;8.632;2023-03-02T12:35:30;100505.81;;;17.95;28.02
19150;BME280;9707;49.158;8.632;2023-03-02T12:37:59;100505.16;;;17.91;27.96
19150;BME280;9707;49.158;8.632;2023-03-02T12:41:01;100503.53;;;17.89;28.83
19150;BME280;9707;49.158;8.632;2023-03-02T12:43:33;100501.69;;;17.89;28.42
19150;BME280;9707;49.158;8.632;2023-03-02T12:46:25;100504.50;;;17.88;28.41
19150;BME280;9707;49.158;8.632;2023-03-02T12:49:02;100494.56;;;17.88;28.97
19150;BME280;9707;49.158;8.632;2023-03-02T12:51:32;100494.47;;;17.90;28.27
19150;BME280;9707;49.158;8.632;2023-03-02T12:54:17;100498.72;;;17.94;29.17
19150;BME280;9707;49.158;8.632;2023-03-02T12:56:43;100490.41;;;17.97;28.90
19150;BME280;9707;49.158;8.632;2023-03-02T12:59:21;100486.53;;;18.01;29.12
19150;BME280;9707;49.158;8.632;2023-03-02T13:01:46;100481.69;;;18.06;29.45
19150;BME280;9707;49.158;8.632;2023-03-02T13:04:38;100479.66;;;18.09;28.55
19150;BME280;9707;49.158;8.632;2023-03-02T13:07:04;100478.72;;;18.10;29.06
19150;BME280;9707;49.158;8.632;2023-03-02T13:09:29;100482.16;;;18.12;28.66
19150;BME280;9707;49.158;8.632;2023-03-02T13:11:55;100476.66;;;18.14;28.58
19150;BME280;9707;49.158;8.632;2023-03-02T13:14:24;100481.19;;;18.13;28.87
19150;BME280;9707;49.158;8.632;2023-03-02T13:16:59;100476.66;;;18.14;28.79
19150;BME280;9707;49.158;8.632;2023-03-02T13:19:27;100479.13;;;18.17;28.65
19150;BME280;9707;49.158;8.632;2023-03-02T13:21:55;100479.13;;;18.17;28.13
19150;BME280;9707;49.158;8.632;2023-03-02T13:24:45;100470.28;;;18.15;28.19
19150;BME280;9707;49.158;8.632;2023-03-02T13:27:19;100472.25;;;18.13;28.71
19150;BME280;9707;49.158;8.632;2023-03-02T13:29:45;100475.69;;;18.15;29.09
19150;BME280;9707;49.158;8.632;2023-03-02T13:34:57;100477.84;;;18.22;28.82
19150;BME280;9707;49.158;8.632;2023-03-02T13:37:37;100466.97;;;18.24;28.69
19150;BME280;9707;49.158;8.632;2023-03-02T13:42:58;100468.59;;;18.26;28.45
19150;BME280;9707;49.158;8.632;2023-03-02T13:45:28;100472.13;;;18.27;28.54
19150;BME280;9707;49.158;8.632;2023-03-02T13:47:57;100465.81;;;18.28;28.62